Time;durP1;ratioP1;P1;durP2;ratioP2;P2;SDS_P1;SDS_P2;PMS_P1;PMS_P2;Temp;Humidity;BMP_temperature;BMP_pressure;BME280_temperature;BME280_humidity;BME280_pressure;Samples;Min_cycle;Max_cycle;Signal;HPM_P1;HPM_P2
2022/02/08 00:00:03;;;;;;;6.70;0.90;;;;;;;14.08;62.35;101691.00;4974797;28;20026;-85
2022/02/08 00:02:30;;;;;;;7.05;1.38;;;;;;;14.37;61.33;101675.09;4974788;28;20388;-85
2022/02/08 00:04:57;;;;;;;4.35;1.02;;;;;;;14.33;61.83;101684.16;4973862;28;20031;-85
2022/02/08 00:07:24;;;;;;;5.25;1.20;;;;;;;14.11;62.34;101679.41;4975105;28;20436;-85
2022/02/08 00:09:50;;;;;;;5.65;0.85;;;;;;;14.15;62.20;101676.47;4974752;28;20384;-85
2022/02/08 00:12:15;;;;;;;6.18;0.82;;;;;;;14.24;61.89;101667.97;4974884;28;20019;-85
2022/02/08 00:14:40;;;;;;;4.50;0.60;;;;;;;14.18;62.22;101681.56;4974504;28;20137;-85
2022/02/08 00:17:06;;;;;;;16.15;1.70;;;;;;;14.26;62.10;101668.72;4972486;28;20038;-85
2022/02/08 00:19:35;;;;;;;11.80;1.40;;;;;;;14.10;62.65;101678.56;4974766;28;20047;-85
2022/02/08 00:22:00;;;;;;;6.57;0.93;;;;;;;14.26;61.97;101676.63;4974736;28;20400;-85
2022/02/08 00:24:25;;;;;;;7.13;1.13;;;;;;;14.19;62.26;101677.97;4974847;28;20023;-85
2022/02/08 00:26:51;;;;;;;10.18;0.70;;;;;;;14.22;62.01;101680.44;4974679;28;20054;-85
2022/02/08 00:29:16;;;;;;;4.72;0.77;;;;;;;14.35;61.80;101683.13;4974229;28;20070;-85
2022/02/08 00:31:42;;;;;;;6.68;0.82;;;;;;;14.43;61.17;101678.19;4974573;28;20586;-85
2022/02/08 00:34:07;;;;;;;7.25;1.10;;;;;;;14.38;61.78;101674.16;4974523;28;20481;-85
2022/02/08 00:36:32;;;;;;;7.85;1.38;;;;;;;14.12;62.16;101676.66;4974269;28;20027;-85
2022/02/08 00:38:58;;;;;;;11.30;1.48;;;;;;;14.14;62.08;101666.84;4974294;28;20385;-85
2022/02/08 00:41:25;;;;;;;6.63;1.05;;;;;;;14.21;61.91;101668.16;4974122;28;20489;-85
2022/02/08 00:43:58;;;;;;;12.13;1.35;;;;;;;14.14;62.48;101672.13;4972833;28;20047;-85
2022/02/08 00:46:38;;;;;;;7.88;1.20;;;;;;;14.27;61.81;101670.41;4974233;28;20370;-85
2022/02/08 00:49:06;;;;;;;7.18;1.25;;;;;;;14.16;61.52;101667.59;4974121;28;20030;-85
2022/02/08 00:51:44;;;;;;;5.55;0.93;;;;;;;14.19;61.70;101666.56;4972477;28;20027;-85
2022/02/08 00:54:10;;;;;;;6.38;0.80;;;;;;;13.99;62.07;101673.94;4973875;28;20037;-85
2022/02/08 00:56:36;;;;;;;6.85;1.00;;;;;;;14.07;61.88;101669.00;4974114;28;20051;-85
2022/02/08 00:59:01;;;;;;;9.68;1.17;;;;;;;14.40;61.07;101669.63;4973920;28;20114;-85
2022/02/08 01:01:30;;;;;;;6.32;1.10;;;;;;;14.27;60.92;101667.75;4972594;28;20033;-85
2022/02/08 01:03:55;;;;;;;4.25;0.73;;;;;;;14.22;61.44;101684.88;4973759;28;20031;-85
2022/02/08 01:06:21;;;;;;;8.00;2.20;;;;;;;14.07;61.91;101686.66;4972252;28;20031;-85
2022/02/08 01:08:47;;;;;;;8.30;1.08;;;;;;;14.22;61.68;101677.78;4973439;28;20089;-85
2022/02/08 01:11:12;;;;;;;6.55;1.27;;;;;;;14.16;61.53;101670.25;4973613;28;20109;-85
2022/02/08 01:13:39;;;;;;;7.93;1.40;;;;;;;14.24;61.60;101686.47;4974076;28;20059;-85
2022/02/08 01:16:06;;;;;;;6.20;1.08;;;;;;;13.95;62.08;101679.50;4973676;28;20027;-85
2022/02/08 01:18:35;;;;;;;5.25;0.80;;;;;;;13.76;62.87;101682.41;4973636;28;20489;-85
2022/02/08 01:21:01;;;;;;;5.55;1.33;;;;;;;13.79;62.88;101680.44;4973378;28;20066;-85
2022/02/08 01:23:26;;;;;;;8.07;1.17;;;;;;;13.97;62.42;101674.97;4972792;28;20501;-85
2022/02/08 01:25:56;;;;;;;5.53;0.90;;;;;;;14.18;61.50;101683.34;4973040;28;20705;-85
2022/02/08 01:28:36;;;;;;;16.23;1.60;;;;;;;14.09;61.98;101682.97;4973066;28;20034;-85
2022/02/08 01:31:04;;;;;;;11.82;1.05;;;;;;;14.21;61.29;101693.72;4973540;28;20389;-85
2022/02/08 01:38:35;;;;;;;9.68;1.92;;;;;;;14.44;60.59;101676.41;4972225;28;20395;-85
2022/02/08 01:41:29;;;;;;;9.63;1.70;;;;;;;14.56;60.20;101680.06;4971951;28;20142;-85
2022/02/08 01:51:51;;;;;;;5.10;1.05;;;;;;;14.27;61.24;101686.25;4972844;28;20043;-85
2022/02/08 01:54:16;;;;;;;11.18;1.23;;;;;;;14.17;61.06;101684.28;4973134;28;20254;-85
2022/02/08 01:56:42;;;;;;;10.80;1.85;;;;;;;14.54;60.24;101695.19;4973378;28;20312;-85
2022/02/08 01:59:08;;;;;;;7.68;1.20;;;;;;;14.27;61.29;101694.16;4972833;28;20488;-85
2022/02/08 02:01:34;;;;;;;9.02;1.30;;;;;;;14.01;61.23;101684.41;4973015;28;20027;-85
2022/02/08 02:03:59;;;;;;;6.28;0.95;;;;;;;14.33;60.70;101689.47;4972866;28;20059;-85
2022/02/08 02:06:25;;;;;;;8.35;1.63;;;;;;;14.07;61.47;101694.59;4972751;28;20463;-85
2022/02/08 02:08:51;;;;;;;6.40;1.42;;;;;;;14.21;61.12;101691.91;4972825;28;20022;-85
2022/02/08 02:11:16;;;;;;;9.40;1.30;;;;;;;14.26;60.83;101689.84;4972970;28;20417;-85
2022/02/08 02:13:45;;;;;;;6.43;1.55;;;;;;;14.20;60.91;101695.53;4973045;28;20114;-85
2022/02/08 02:16:14;;;;;;;8.45;1.40;;;;;;;14.20;60.47;101690.25;4972910;28;20592;-85
2022/02/08 02:18:39;;;;;;;8.95;1.60;;;;;;;14.25;60.48;101696.06;4972664;28;20408;-85
2022/02/08 02:21:05;;;;;;;4.55;0.77;;;;;;;14.29;60.73;101694.91;4972422;28;20127;-85
2022/02/08 02:23:31;;;;;;;6.22;1.17;;;;;;;14.30;60.28;101695.78;4971624;28;20122;-85
2022/02/08 02:25:58;;;;;;;8.82;1.17;;;;;;;14.10;60.54;101699.69;4972723;28;20031;-85
2022/02/08 02:28:23;;;;;;;10.43;1.20;;;;;;;14.27;60.64;101702.09;4972467;28;20026;-85
2022/02/08 02:30:49;;;;;;;5.97;1.15;;;;;;;14.26;60.47;101704.84;4973004;28;20018;-85
2022/02/08 02:33:15;;;;;;;9.50;1.10;;;;;;;14.26;60.62;101702.22;4972948;28;20477;-85
2022/02/08 02:35:42;;;;;;;7.90;1.33;;;;;;;14.34;60.19;101696.44;4972265;28;20073;-85
2022/02/08 02:38:08;;;;;;;10.27;1.17;;;;;;;14.31;60.29;101701.91;4972548;28;20038;-85
2022/02/08 02:40:33;;;;;;;5.00;1.25;;;;;;;14.31;60.36;101707.19;4975919;28;20026;-85
2022/02/08 02:43:00;;;;;;;9.05;0.95;;;;;;;14.39;60.04;101703.13;4976158;28;20089;-85
2022/02/08 02:45:26;;;;;;;10.38;1.10;;;;;;;14.23;60.24;101684.75;4976320;28;20027;-85
2022/02/08 02:47:53;;;;;;;10.38;1.45;;;;;;;14.34;60.26;101697.28;4976358;28;20085;-85
2022/02/08 02:50:20;;;;;;;10.93;1.73;;;;;;;14.23;60.64;101694.47;4976116;28;20121;-85
2022/02/08 02:52:46;;;;;;;6.40;1.25;;;;;;;14.08;60.87;101697.13;4976051;28;20035;-85
2022/02/08 02:55:14;;;;;;;10.50;1.42;;;;;;;14.13;60.86;101693.34;4974777;28;20067;-85
2022/02/08 02:57:41;;;;;;;6.32;1.20;;;;;;;14.26;60.78;101697.78;4976350;28;20034;-85
2022/02/08 03:00:13;;;;;;;9.35;2.03;;;;;;;14.26;60.82;101694.28;4976051;28;20050;-85
2022/02/08 03:02:48;;;;;;;7.95;1.27;;;;;;;14.05;61.27;101693.81;4974891;28;20042;-85
2022/02/08 03:05:27;;;;;;;5.97;0.90;;;;;;;14.11;61.22;101695.25;4975830;28;20019;-85
2022/02/08 03:18:48;;;;;;;11.18;1.08;;;;;;;14.14;60.94;101695.03;4975824;28;20029;-85
2022/02/08 03:21:14;;;;;;;14.00;1.65;;;;;;;14.17;60.29;101690.41;4974190;28;20019;-86
2022/02/08 03:23:40;;;;;;;8.27;1.20;;;;;;;13.92;61.28;101690.25;4975344;28;20031;-86
2022/02/08 03:26:06;;;;;;;8.95;1.00;;;;;;;13.99;60.92;101691.56;4975413;28;20113;-85
2022/02/08 03:28:32;;;;;;;8.02;2.03;;;;;;;14.22;60.47;101693.63;4974727;28;20053;-85
2022/02/08 03:30:58;;;;;;;10.68;1.35;;;;;;;14.22;60.71;101687.50;4975422;28;20023;-85
2022/02/08 03:33:25;;;;;;;6.30;1.40;;;;;;;14.20;60.19;101690.25;4975245;28;20033;-85
2022/02/08 03:35:53;;;;;;;8.70;1.33;;;;;;;14.29;60.01;101683.50;4973425;28;20035;-85
2022/02/08 03:38:26;;;;;;;7.22;1.00;;;;;;;14.26;60.29;101689.00;4975148;28;20109;-86
2022/02/08 03:40:52;;;;;;;4.70;1.13;;;;;;;14.14;60.26;101685.34;4975090;28;20515;-85
2022/02/08 03:45:54;;;;;;;7.57;0.95;;;;;;;14.24;59.91;101675.88;4975516;28;20038;-86
2022/02/08 03:48:23;;;;;;;8.52;1.30;;;;;;;14.29;59.73;101678.22;4975247;28;20041;-85
2022/02/08 03:50:54;;;;;;;6.78;1.88;;;;;;;14.07;60.03;101671.66;4974331;28;20035;-86
2022/02/08 03:53:21;;;;;;;5.10;0.75;;;;;;;14.23;59.78;101675.97;4974701;28;20027;-86
2022/02/08 03:55:47;;;;;;;6.72;0.70;;;;;;;14.08;60.27;101680.44;4974868;28;20041;-85
2022/02/08 03:58:13;;;;;;;8.45;1.85;;;;;;;14.21;60.00;101657.56;4974065;28;20089;-86
2022/02/08 04:03:27;;;;;;;4.68;0.85;;;;;;;14.24;59.48;101660.03;4963770;28;20047;-85
2022/02/08 04:05:55;;;;;;;3.97;0.80;;;;;;;13.99;60.11;101675.72;4974251;28;20679;-86
2022/02/08 04:08:21;;;;;;;9.93;1.20;;;;;;;14.03;60.13;101669.31;4974699;28;20019;-86
2022/02/08 04:10:46;;;;;;;12.20;2.10;;;;;;;14.18;59.92;101672.75;4974630;28;20038;-86
2022/02/08 04:13:25;;;;;;;14.85;1.50;;;;;;;14.14;60.18;101663.34;4973971;28;20481;-85
2022/02/08 04:32:41;;;;;;;6.50;1.20;;;;;;;14.33;59.32;101663.03;4955055;28;20386;-85
2022/02/08 04:35:35;;;;;;;6.95;0.80;;;;;;;14.20;59.94;101663.81;4975037;28;20512;-85
2022/02/08 04:48:03;;;;;;;7.80;0.77;;;;;;;14.00;60.54;101661.56;4975314;28;20035;-85
2022/02/08 04:50:30;;;;;;;5.40;0.70;;;;;;;14.18;60.02;101659.56;4974655;28;20105;-85
2022/02/08 04:53:03;;;;;;;6.03;1.17;;;;;;;13.93;60.72;101660.28;4973635;28;20401;-85
2022/02/08 04:55:39;;;;;;;7.88;1.10;;;;;;;14.20;60.04;101657.69;4974473;28;20069;-85
2022/02/08 05:01:08;;;;;;;7.28;0.98;;;;;;;14.17;60.12;101668.44;4974947;28;20105;-85
2022/02/08 05:41:52;;;;;;;4.80;1.15;;;;;;;14.38;59.41;101666.25;4974035;28;20076;-85
2022/02/08 05:44:30;;;;;;;8.55;1.10;;;;;;;14.34;59.30;101662.09;4972815;28;20091;-85
2022/02/08 05:46:56;;;;;;;4.25;0.90;;;;;;;14.42;59.36;101654.53;4973731;28;20077;-85
2022/02/08 05:49:38;;;;;;;5.97;0.98;;;;;;;14.59;58.66;101661.38;4973628;28;20031;-85
2022/02/08 05:52:32;;;;;;;4.93;1.15;;;;;;;14.52;59.03;101663.56;4973939;28;20489;-85
2022/02/08 05:54:55;;;;;;;6.60;1.45;;;;;;;14.57;58.98;101655.34;4973847;28;20059;-85
2022/02/08 05:57:21;;;;;;;8.82;2.22;;;;;;;14.62;59.08;101659.41;4973715;28;20023;-85
2022/02/08 05:59:48;;;;;;;3.28;0.60;;;;;;;14.60;58.93;101655.16;4973431;28;20433;-85
2022/02/08 06:02:14;;;;;;;3.47;0.70;;;;;;;14.66;58.55;101660.88;4973699;28;20408;-85
2022/02/08 06:04:40;;;;;;;4.75;0.57;;;;;;;14.59;59.03;101653.47;4973492;28;20477;-85
2022/02/08 06:07:05;;;;;;;4.32;0.90;;;;;;;14.50;58.81;101660.16;4973552;28;20034;-85
2022/02/08 06:09:31;;;;;;;8.82;1.70;;;;;;;14.38;59.25;101658.31;4973050;28;20026;-85
2022/02/08 06:11:57;;;;;;;3.75;0.70;;;;;;;14.70;58.64;101661.53;4973293;28;20124;-85
2022/02/08 06:14:26;;;;;;;4.30;0.50;;;;;;;14.62;58.41;101651.47;4975360;28;20389;-85
2022/02/08 06:16:52;;;;;;;8.48;1.00;;;;;;;14.58;58.65;101652.63;4976933;28;20126;-85
2022/02/08 06:19:18;;;;;;;5.22;0.95;;;;;;;14.49;59.02;101658.47;4975803;28;20023;-85
2022/02/08 06:21:43;;;;;;;6.75;1.65;;;;;;;14.37;59.43;101659.25;4976881;28;20486;-85
2022/02/08 06:24:09;;;;;;;6.53;0.82;;;;;;;14.40;58.98;101659.06;4976880;28;20034;-85
2022/02/08 06:26:34;;;;;;;4.60;1.02;;;;;;;14.49;58.84;101661.09;4976826;28;20378;-85
2022/02/08 06:29:12;;;;;;;7.07;1.80;;;;;;;14.46;58.93;101663.97;4976731;28;20116;-85
2022/02/08 06:31:39;;;;;;;4.88;0.95;;;;;;;14.54;58.83;101652.91;4976703;28;20389;-85
2022/02/08 06:34:04;;;;;;;3.63;0.75;;;;;;;14.66;58.37;101660.88;4976831;28;20122;-84
2022/02/08 06:36:31;;;;;;;5.85;1.02;;;;;;;14.65;58.13;101658.34;4976923;28;20109;-84
2022/02/08 06:38:56;;;;;;;5.40;0.85;;;;;;;14.59;58.39;101645.53;4976823;28;20053;-84
2022/02/08 06:41:21;;;;;;;6.63;0.90;;;;;;;14.63;58.20;101649.66;4976619;28;20481;-84
2022/02/08 06:43:47;;;;;;;5.05;0.85;;;;;;;14.64;58.48;101646.94;4976625;28;20034;-84
2022/02/08 06:46:12;;;;;;;5.28;0.90;;;;;;;14.65;58.39;101651.28;4975978;28;20035;-84
2022/02/08 06:48:39;;;;;;;5.32;0.93;;;;;;;14.67;58.10;101646.75;4976442;28;20285;-84
2022/02/08 06:51:04;;;;;;;7.13;0.75;;;;;;;14.49;58.82;101653.16;4976678;28;20029;-84
2022/02/08 06:53:29;;;;;;;5.60;1.13;;;;;;;14.54;58.59;101651.09;4976608;28;20110;-84
2022/02/08 06:55:55;;;;;;;4.57;0.85;;;;;;;14.57;58.85;101645.63;4976512;28;20030;-84
2022/02/08 06:58:24;;;;;;;5.22;1.15;;;;;;;14.67;58.30;101652.03;4974139;28;20023;-84
2022/02/08 07:00:50;;;;;;;3.95;0.70;;;;;;;14.57;58.71;101652.72;4974010;28;20042;-84
2022/02/08 07:03:17;;;;;;;5.72;0.73;;;;;;;14.63;58.69;101653.19;4975463;28;20310;-84
2022/02/08 07:05:43;;;;;;;8.23;0.90;;;;;;;14.60;58.82;101652.53;4976284;28;20023;-88
2022/02/08 07:08:10;;;;;;;8.10;1.13;;;;;;;14.51;58.83;101647.78;4976282;28;20477;-87
2022/02/08 07:10:36;;;;;;;5.25;0.68;;;;;;;14.54;58.78;101663.47;4977617;28;20033;-86
2022/02/08 07:13:03;;;;;;;8.00;1.20;;;;;;;14.65;58.82;101658.34;4975448;28;20023;-87
2022/02/08 07:15:29;;;;;;;5.88;0.93;;;;;;;14.68;58.73;101656.34;4977347;28;20038;-87
2022/02/08 07:17:54;;;;;;;5.72;1.27;;;;;;;14.75;58.60;101655.94;4975779;28;20022;-87
2022/02/08 07:20:20;;;;;;;9.18;0.80;;;;;;;14.63;58.91;101650.53;4976611;28;20027;-87
2022/02/08 07:22:46;;;;;;;3.88;0.88;;;;;;;14.67;58.91;101656.44;4977608;28;20031;-87
2022/02/08 07:25:12;;;;;;;5.13;1.13;;;;;;;14.59;59.36;101656.97;4970985;28;20042;-87
2022/02/08 07:27:38;;;;;;;3.80;0.98;;;;;;;14.52;59.38;101660.91;4971699;28;20023;-86
2022/02/08 07:30:10;;;;;;;9.70;1.23;;;;;;;14.42;59.83;101657.19;4975688;28;20050;-87
2022/02/08 07:32:38;;;;;;;4.35;0.60;;;;;;;14.51;59.69;101661.84;4959196;28;20071;-87
2022/02/08 07:42:54;;;;;;;3.50;0.73;;;;;;;14.17;60.89;101661.34;4973748;28;20026;-85
2022/02/08 07:45:21;;;;;;;10.43;0.90;;;;;;;14.29;60.05;101671.16;4974634;28;20093;-85
2022/02/08 07:47:47;;;;;;;8.20;0.93;;;;;;;14.37;60.22;101664.53;4975310;28;20026;-85
2022/02/08 07:50:13;;;;;;;6.57;1.55;;;;;;;14.10;60.99;101668.00;4975323;28;20370;-85
2022/02/08 07:52:39;;;;;;;7.18;0.95;;;;;;;14.29;60.80;101663.22;4975460;28;20031;-85
2022/02/08 07:55:05;;;;;;;2.58;0.70;;;;;;;14.37;60.30;101665.38;4974834;28;20114;-84
2022/02/08 07:57:30;;;;;;;4.25;0.60;;;;;;;14.32;60.63;101678.06;4974071;28;20159;-84
2022/02/08 07:59:56;;;;;;;7.05;0.88;;;;;;;14.36;60.38;101673.44;4975328;28;20113;-85
2022/02/08 08:02:21;;;;;;;6.90;1.30;;;;;;;14.40;59.87;101670.47;4975056;28;20027;-85
2022/02/08 08:04:47;;;;;;;2.55;0.60;;;;;;;14.37;60.52;101675.94;4974898;28;20034;-85
2022/02/08 08:07:12;;;;;;;4.45;0.90;;;;;;;14.35;60.58;101683.13;4974689;28;20041;-85
2022/02/08 08:09:40;;;;;;;4.43;0.90;;;;;;;14.42;60.43;101684.44;4974830;28;20158;-85
2022/02/08 08:12:09;;;;;;;6.35;0.90;;;;;;;14.49;60.18;101690.16;4973570;28;20031;-85
2022/02/08 08:14:35;;;;;;;8.90;1.80;;;;;;;14.48;60.43;101685.84;4974337;28;20485;-84
2022/02/08 08:17:24;;;;;;;5.10;0.73;;;;;;;14.42;60.76;101683.59;4974539;28;20046;-87
2022/02/08 08:19:47;;;;;;;5.40;1.58;;;;;;;14.54;60.42;101688.09;4974256;28;20118;-85
2022/02/08 08:22:13;;;;;;;3.08;0.70;;;;;;;14.57;60.11;101687.91;4974549;28;20019;-85
2022/02/08 08:24:39;;;;;;;3.97;0.90;;;;;;;14.55;60.06;101688.94;4974346;28;20117;-85
2022/02/08 08:27:05;;;;;;;2.80;0.73;;;;;;;14.68;59.82;101685.44;4973349;28;20533;-85
2022/02/08 08:29:30;;;;;;;2.83;0.70;;;;;;;14.64;60.29;101677.81;4966330;28;20030;-84
2022/02/08 08:31:56;;;;;;;6.47;0.85;;;;;;;14.78;59.68;101684.84;4963560;28;20131;-88
2022/02/08 08:34:22;;;;;;;5.57;0.90;;;;;;;14.77;59.47;101688.41;4970910;28;20473;-87
2022/02/08 08:36:50;;;;;;;5.75;0.82;;;;;;;14.88;59.43;101680.63;4958897;28;20046;-84
2022/02/08 08:39:19;;;;;;;7.88;0.70;;;;;;;14.60;60.10;101677.16;4971913;28;20055;-84
2022/02/08 08:42:04;;;;;;;4.97;1.13;;;;;;;14.67;59.55;101674.94;4954363;28;20485;-85
2022/02/08 08:50:13;;;;;;;4.35;0.98;;;;;;;15.06;59.11;101682.06;4973947;28;20034;-84
2022/02/08 08:52:47;;;;;;;4.38;0.65;;;;;;;14.92;59.69;101686.56;4974035;28;20027;-85
2022/02/08 08:55:16;;;;;;;1.80;0.30;;;;;;;15.04;59.19;101686.59;4973983;28;20118;-85
2022/02/08 08:57:42;;;;;;;4.85;0.60;;;;;;;14.95;59.50;101684.59;4973830;28;20031;-85
2022/02/08 09:00:09;;;;;;;3.13;0.70;;;;;;;14.92;59.95;101682.13;4973874;28;20045;-85
2022/02/08 09:02:35;;;;;;;5.22;0.90;;;;;;;15.24;59.06;101681.78;4973515;28;20058;-84
2022/02/08 09:05:04;;;;;;;3.22;0.52;;;;;;;15.33;58.87;101685.63;4973381;28;20536;-85
2022/02/08 09:07:30;;;;;;;5.60;0.70;;;;;;;15.56;58.43;101682.25;4973693;28;20542;-85
2022/02/08 09:09:59;;;;;;;3.28;0.60;;;;;;;15.63;57.98;101688.81;4973583;28;20138;-85
2022/02/08 09:12:27;;;;;;;5.43;0.80;;;;;;;15.56;58.09;101691.97;4973580;28;20073;-85
2022/02/08 09:15:11;;;;;;;7.97;0.85;;;;;;;15.50;58.46;101689.75;4973649;28;20034;-85
2022/02/08 09:28:43;;;;;;;5.70;0.55;;;;;;;15.79;57.89;101699.22;4970743;28;20035;-85
2022/02/08 09:31:14;;;;;;;6.10;0.70;;;;;;;15.61;58.28;101690.72;4973072;28;20568;-85
2022/02/08 09:33:39;;;;;;;6.10;0.95;;;;;;;15.59;58.55;101689.97;4973487;28;20037;-85
2022/02/08 09:36:05;;;;;;;5.55;1.02;;;;;;;15.68;58.06;101696.44;4973222;28;20026;-85
2022/02/08 09:38:31;;;;;;;4.03;0.95;;;;;;;15.76;57.99;101693.31;4972591;28;20049;-85
2022/02/08 09:41:01;;;;;;;2.83;0.68;;;;;;;16.06;57.34;101692.94;4972538;28;20462;-85
2022/02/08 09:43:31;;;;;;;4.18;0.82;;;;;;;15.77;58.30;101698.47;4973365;28;20031;-85
2022/02/08 09:46:00;;;;;;;5.07;1.13;;;;;;;15.83;58.15;101690.09;4973155;28;20085;-85
2022/02/08 09:48:41;;;;;;;4.63;0.70;;;;;;;16.11;57.53;101696.09;4972861;28;20081;-85
2022/02/08 09:51:07;;;;;;;8.37;0.90;;;;;;;15.75;58.42;101694.25;4971926;28;20023;-85
2022/02/08 09:53:35;;;;;;;6.65;1.10;;;;;;;15.99;58.41;101689.03;4973105;28;20089;-85
2022/02/08 09:56:02;;;;;;;5.53;0.88;;;;;;;16.17;58.02;101698.34;4972441;28;20069;-85
2022/02/08 09:58:28;;;;;;;5.28;1.80;;;;;;;16.22;57.41;101693.53;4973334;28;20377;-85
2022/02/08 10:01:04;;;;;;;4.93;1.27;;;;;;;16.18;57.71;101699.19;4973002;28;20027;-85
2022/02/08 10:03:29;;;;;;;9.55;1.27;;;;;;;16.24;57.77;101694.28;4973039;28;20057;-85
2022/02/08 10:05:56;;;;;;;6.47;0.88;;;;;;;16.29;57.60;101703.69;4972952;28;20019;-85
2022/02/08 10:08:22;;;;;;;6.90;1.20;;;;;;;16.17;58.19;101702.78;4972856;28;20038;-85
2022/02/08 10:10:48;;;;;;;4.97;1.30;;;;;;;16.05;58.70;101707.13;4973118;28;20039;-85
2022/02/08 10:21:45;;;;;;;5.40;1.25;;;;;;;16.76;56.60;101696.75;4972914;28;20113;-85
2022/02/08 10:24:13;;;;;;;5.53;1.00;;;;;;;16.60;56.60;101692.56;4972684;28;20105;-85
2022/02/08 10:26:53;;;;;;;3.95;0.95;;;;;;;16.36;57.58;101689.06;4972829;28;20019;-85
2022/02/08 10:29:34;;;;;;;6.38;1.20;;;;;;;16.36;57.29;101691.72;4972265;28;20031;-85
2022/02/08 10:32:20;;;;;;;8.82;1.10;;;;;;;16.24;57.47;101691.63;4972807;28;20128;-85
2022/02/08 10:37:47;;;;;;;6.18;0.73;;;;;;;15.91;58.50;101686.91;4972628;28;20089;-85
2022/02/08 10:40:19;;;;;;;3.22;1.30;;;;;;;16.02;58.49;101688.81;4971418;28;20374;-85
2022/02/08 10:42:52;;;;;;;4.93;0.70;;;;;;;16.15;58.25;101694.09;4972561;28;20362;-85
2022/02/08 10:45:24;;;;;;;3.97;1.00;;;;;;;16.22;58.18;101693.53;4972302;28;20062;-84
2022/02/08 10:47:58;;;;;;;5.68;1.05;;;;;;;16.27;58.10;101682.59;4972585;28;20027;-85
2022/02/08 10:50:25;;;;;;;3.28;0.65;;;;;;;16.42;57.71;101689.47;4972302;28;20038;-85
2022/02/08 10:52:51;;;;;;;2.90;0.60;;;;;;;16.24;58.28;101704.03;4972622;28;20089;-85
2022/02/08 11:00:27;;;;;;;4.10;0.70;;;;;;;16.40;57.35;101707.28;4973330;28;20284;-85
2022/02/08 11:02:55;;;;;;;3.85;0.77;;;;;;;16.52;57.21;101697.59;4975824;28;20031;-85
2022/02/08 11:05:39;;;;;;;5.50;0.98;;;;;;;16.59;57.20;101712.09;4975719;28;20030;-85
2022/02/08 11:08:24;;;;;;;1.58;0.30;;;;;;;16.57;56.90;101700.78;4975961;28;20392;-85
2022/02/08 11:11:18;;;;;;;5.15;0.70;;;;;;;16.44;56.28;101713.22;4976019;28;20027;-85
2022/02/08 11:14:58;;;;;;;3.33;0.45;;;;;;;16.08;56.68;101704.28;4974075;28;20456;-85
2022/02/08 11:20:06;;;;;;;3.72;0.60;;;;;;;16.45;56.87;101714.91;4971429;28;20037;-85
2022/02/08 11:25:12;;;;;;;2.35;0.40;;;;;;;16.85;55.45;101704.09;4963052;28;20492;-87
2022/02/08 11:27:46;;;;;;;3.90;0.50;;;;;;;17.43;54.58;101698.84;4967897;28;20042;-88
2022/02/08 11:30:16;;;;;;;3.72;0.80;;;;;;;17.24;54.32;101704.72;4967922;28;20062;-89
2022/02/08 11:33:18;;;;;;;5.57;0.82;;;;;;;17.33;54.91;101697.84;4974740;28;20022;-88
2022/02/08 11:44:24;;;;;;;3.30;0.50;;;;;;;17.08;54.57;101680.28;4973709;28;20520;-89
2022/02/08 11:53:07;;;;;;;4.78;0.85;;;;;;;17.29;54.36;101675.16;4963748;28;20101;-89
2022/02/08 12:07:44;;;;;;;5.30;0.55;;;;;;;17.72;53.50;101669.19;4974538;28;20089;-89
2022/02/08 12:10:42;;;;;;;5.63;0.70;;;;;;;17.39;53.80;101669.03;4974297;28;20027;-89
2022/02/08 12:35:14;;;;;;;1.58;0.50;;;;;;;17.27;53.98;101662.00;4968719;28;20042;-85
2022/02/08 12:48:48;;;;;;;5.60;0.60;;;;;;;17.23;53.77;101649.94;4954703;28;20038;-85
2022/02/08 14:01:38;;;;;;;4.20;0.50;;;;;;;17.38;53.71;101627.53;4967884;28;20584;-84
2022/02/08 14:08:27;;;;;;;2.75;0.60;;;;;;;17.34;53.60;101602.19;4961531;28;20548;-85
2022/02/08 14:16:50;;;;;;;2.28;0.50;;;;;;;17.04;54.43;101602.72;4973591;28;20041;-85
2022/02/08 14:23:54;;;;;;;4.60;0.70;;;;;;;17.18;54.05;101610.47;4972909;28;20413;-85
2022/02/08 15:07:11;;;;;;;2.88;0.52;;;;;;;16.42;55.87;101548.13;4976380;28;20193;-87
2022/02/08 15:09:11;;;;;;;5.30;0.68;;;;;;;16.49;55.71;101552.03;4959262;28;20043;-87
2022/02/08 15:11:56;;;;;;;4.72;0.90;;;;;;;16.26;56.06;101557.22;4971236;28;20178;-87
2022/02/08 15:14:26;;;;;;;3.72;1.10;;;;;;;16.34;55.74;101547.84;4965946;28;20038;-87
2022/02/08 15:16:51;;;;;;;5.20;1.17;;;;;;;16.30;55.72;101554.34;4976030;28;20033;-87
2022/02/08 15:19:17;;;;;;;6.82;0.60;;;;;;;16.02;55.98;101553.72;4975718;28;20034;-87
2022/02/08 15:21:43;;;;;;;5.13;0.77;;;;;;;16.00;56.03;101558.28;4975668;28;20030;-87
2022/02/08 15:24:09;;;;;;;4.80;0.93;;;;;;;15.93;56.09;101557.03;4975890;28;20022;-87
2022/02/08 15:26:36;;;;;;;1.77;0.60;;;;;;;16.16;55.62;101558.84;4976184;28;20115;-87
2022/02/08 15:29:04;;;;;;;2.97;0.80;;;;;;;16.15;54.86;101553.66;4975978;28;20082;-87
2022/02/08 15:31:30;;;;;;;2.65;0.43;;;;;;;16.25;54.84;101557.31;4976195;28;20280;-87
2022/02/08 15:33:58;;;;;;;6.20;0.75;;;;;;;16.36;55.02;101549.44;4976215;28;20022;-86
2022/02/08 15:36:23;;;;;;;4.30;0.57;;;;;;;16.25;55.27;101560.84;4975510;28;20054;-87
2022/02/08 15:38:53;;;;;;;5.47;0.88;;;;;;;16.14;55.50;101560.75;4975646;28;20026;-87
2022/02/08 15:41:18;;;;;;;1.17;0.50;;;;;;;16.38;55.50;101559.91;4975497;28;20519;-87
2022/02/08 15:43:44;;;;;;;3.33;0.73;;;;;;;16.41;55.98;101557.91;4976105;28;20054;-87
2022/02/08 15:46:19;;;;;;;3.28;0.43;;;;;;;16.08;56.07;101563.03;4975148;28;20019;-87
2022/02/08 15:48:47;;;;;;;3.80;0.80;;;;;;;16.30;55.77;101562.28;4975583;28;20114;-87
2022/02/08 15:51:30;;;;;;;2.88;0.77;;;;;;;16.24;55.63;101550.34;4975022;28;20089;-87
2022/02/08 15:54:11;;;;;;;3.88;0.70;;;;;;;16.22;55.83;101557.56;4957048;28;20580;-87
2022/02/08 15:56:55;;;;;;;3.20;0.80;;;;;;;16.19;55.05;101558.63;4955919;28;20030;-90
2022/02/08 16:07:36;;;;;;;7.03;1.08;;;;;;;15.99;55.41;101553.94;4965914;28;20161;-88
2022/02/08 16:10:10;;;;;;;1.52;0.70;;;;;;;16.05;55.22;101551.69;4960374;28;20048;-86
2022/02/08 16:17:49;;;;;;;3.70;0.60;;;;;;;15.79;54.90;101556.22;4974277;28;20041;-86
2022/02/08 16:47:29;;;;;;;4.20;0.52;;;;;;;15.60;54.01;101561.09;4972517;28;20074;-89
2022/02/08 17:00:02;;;;;;;4.13;0.73;;;;;;;15.62;54.63;101557.41;4958169;28;20073;-86
2022/02/08 17:02:29;;;;;;;4.50;1.13;;;;;;;15.55;54.72;101558.78;4973759;28;20492;-87
2022/02/08 17:04:54;;;;;;;8.27;0.90;;;;;;;15.52;54.84;101553.72;4964799;28;20035;-86
2022/02/08 17:07:21;;;;;;;4.22;0.57;;;;;;;15.44;55.04;101546.31;4954181;28;20585;-87
2022/02/08 17:10:00;;;;;;;6.78;0.98;;;;;;;15.54;54.66;101556.22;4964665;28;20027;-88
2022/02/08 17:12:52;;;;;;;2.97;0.95;;;;;;;15.49;54.88;101555.72;4957936;28;20034;-88
2022/02/08 17:18:30;;;;;;;3.92;0.93;;;;;;;15.32;55.29;101554.25;4972634;28;20404;-86
2022/02/08 17:45:43;;;;;;;7.10;0.95;;;;;;;15.14;54.35;101559.00;4971654;28;20057;-89
2022/02/08 17:48:07;;;;;;;3.50;0.90;;;;;;;15.16;54.82;101563.25;4972844;28;20070;-88
2022/02/08 17:50:33;;;;;;;2.45;0.70;;;;;;;15.17;54.17;101559.66;4965153;28;20034;-89
2022/02/08 17:52:58;;;;;;;6.78;1.17;;;;;;;15.10;54.30;101573.41;4970549;28;20097;-90
2022/02/08 17:55:24;;;;;;;7.88;1.90;;;;;;;15.09;53.61;101567.28;4961114;28;20026;-88
2022/02/08 17:57:49;;;;;;;2.65;0.63;;;;;;;15.17;53.52;101561.47;4968395;28;20031;-90
2022/02/08 18:00:16;;;;;;;11.77;5.15;;;;;;;15.17;53.49;101575.53;4971367;28;20050;-88
2022/02/08 18:02:47;;;;;;;6.07;1.02;;;;;;;15.23;53.21;101566.31;4970867;28;20023;-89
2022/02/08 18:05:16;;;;;;;4.05;1.52;;;;;;;15.19;53.42;101573.63;4972090;28;20069;-87
2022/02/08 18:07:42;;;;;;;5.55;1.35;;;;;;;15.14;52.82;101559.84;4971535;28;20031;-88
2022/02/08 18:10:09;;;;;;;8.40;1.40;;;;;;;15.02;53.08;101569.47;4975601;28;20106;-89
2022/02/08 18:12:37;;;;;;;6.47;1.92;;;;;;;14.87;52.88;101575.84;4974867;28;20034;-89
2022/02/08 18:15:08;;;;;;;7.97;3.08;;;;;;;14.99;52.44;101567.06;4975408;28;20421;-89
2022/02/08 18:17:39;;;;;;;5.05;1.27;;;;;;;14.85;52.59;101549.47;4975150;28;20392;-87
2022/02/08 18:20:19;;;;;;;3.33;0.90;;;;;;;15.02;51.70;101566.00;4974858;28;20038;-88